Aeroporto :
LOGIN :

Iscrizione | Disclaimer

   EN    FR    IT 

 










Sommario :    VFR   VFR Marginale   IFR   IFR Intensivo   IFR Molto Intensivo
Visibilità : 
Base nubi : 
>= 8 km
>= 3000ft
5 / 8 km
1000 / 3000 ft
1500m / 5 km
500 / 1000 ft
800 / 1500m
200 / 500 ft
< 800m
< 200 ft
Simboli :   Temporali  Nebbia  Neve Forte  Precipitazioni Forti  Vento > 20 kt
SIGMETs :   Varie  Temporali  Ghiacco  Turbolenza  Onda orograficha  Ceneri Vulcaniche







- Altitudine del aeroporto : 648 ft
- Codice IATA : INI


LYNI - Nis Constantine

ULTIMO METAR :
  • 202030Z 32008KT 9999 BKN040 08/01 Q1032 NOSIG

METARs OBSOLETI :
  • 202000Z 33007KT 300V010 9999 BKN040 08/01 Q1031 NOSIG
  • 201930Z 32012KT 300V360 9999 BKN047 08/01 Q1031 NOSIG
  • 201900Z 32014KT 9999 BKN047 09/00 Q1031 NOSIG
  • 201830Z 32016KT 9999 -RA BKN043 09/01 Q1030 NOSIG

TAF TAF LYNI
Valido dal 20 a 18 ore il 21 a 18 ore UTC


201700Z 2018/2118 32018KT 9999 BKN033 TX12/2113Z TN05/2106Z
BECMG 2019/2021 32008KT
TEMPO 2110/2116 36015G28KT
Nessun NOTAM noto per questo aeroporto.



MetMap, La meteo Aeronautica in un colpo d'occhio ! - Copyright ORBIFLY Dicembre 2007 - Disclaimer

ORBIFLY MET'MAP TEAM :

Programmazione e sviluppo : Alexandra Zaïnal
Concezione e sviluppo : Baudouin d'Aumeries
Co-Programmazione e sviluppo : Marc-Olivier Méhu
Supporto tecnico e logistico : Manuel Goepfert
Aiuto per la traduzione : Arnaldo La Scala

Contatto : metmap@orbifly.com




FONTI E CREDITI :

   NOAA